sensor_id;sensor_type;location;lat;lon;timestamp;pressure;altitude;pressure_sealevel;temperature;humidity
23643;BME280;11998;55.788;37.572;2023-04-20T00:00:04;99464.34;;;76.18;2.81
23643;BME280;11998;55.788;37.572;2023-04-20T00:01:10;99458.94;;;75.64;3.36
23643;BME280;11998;55.788;37.572;2023-04-20T00:02:11;99471.75;;;76.10;2.99
23643;BME280;11998;55.788;37.572;2023-04-20T00:03:14;99467.81;;;76.04;3.20
23643;BME280;11998;55.788;37.572;2023-04-20T00:04:17;99463.00;;;75.22;2.86
23643;BME280;11998;55.788;37.572;2023-04-20T00:05:18;99468.03;;;75.88;3.00
23643;BME280;11998;55.788;37.572;2023-04-20T00:06:18;99467.63;;;75.98;3.06
23643;BME280;11998;55.788;37.572;2023-04-20T00:07:20;99459.31;;;75.09;3.49
23643;BME280;11998;55.788;37.572;2023-04-20T00:08:24;99462.00;;;75.60;3.42
23643;BME280;11998;55.788;37.572;2023-04-20T00:09:25;99451.47;;;73.66;3.53
23643;BME280;11998;55.788;37.572;2023-04-20T00:10:29;99460.00;;;74.41;3.24
23643;BME280;11998;55.788;37.572;2023-04-20T00:11:30;99461.97;;;74.82;3.30
23643;BME280;11998;55.788;37.572;2023-04-20T00:12:30;99456.69;;;74.64;3.60
23643;BME280;11998;55.788;37.572;2023-04-20T00:13:31;99459.03;;;75.16;3.50
23643;BME280;11998;55.788;37.572;2023-04-20T00:14:32;99453.22;;;75.82;2.87
23643;BME280;11998;55.788;37.572;2023-04-20T00:15:32;99452.78;;;74.80;3.24
23643;BME280;11998;55.788;37.572;2023-04-20T00:16:33;99459.09;;;75.26;2.96
23643;BME280;11998;55.788;37.572;2023-04-20T00:17:34;99459.19;;;75.78;3.02
23643;BME280;11998;55.788;37.572;2023-04-20T00:18:35;99464.50;;;75.93;3.08
23643;BME280;11998;55.788;37.572;2023-04-20T00:19:36;99459.66;;;76.79;3.05
23643;BME280;11998;55.788;37.572;2023-04-20T00:20:37;99457.72;;;76.95;2.96
23643;BME280;11998;55.788;37.572;2023-04-20T00:21:37;99468.91;;;76.28;3.26
23643;BME280;11998;55.788;37.572;2023-04-20T00:22:38;99465.84;;;76.01;3.20
23643;BME280;11998;55.788;37.572;2023-04-20T00:23:41;99452.59;;;74.74;3.43
23643;BME280;11998;55.788;37.572;2023-04-20T00:24:42;99452.38;;;74.18;3.35
23643;BME280;11998;55.788;37.572;2023-04-20T00:25:43;99455.66;;;75.40;3.40
23643;BME280;11998;55.788;37.572;2023-04-20T00:26:43;99451.22;;;75.01;3.41
23643;BME280;11998;55.788;37.572;2023-04-20T00:27:44;99457.28;;;75.19;3.25
23643;BME280;11998;55.788;37.572;2023-04-20T00:28:49;99459.50;;;75.49;3.30
23643;BME280;11998;55.788;37.572;2023-04-20T00:29:50;99453.06;;;75.20;3.37
23643;BME280;11998;55.788;37.572;2023-04-20T00:30:50;99452.56;;;75.87;3.06
23643;BME280;11998;55.788;37.572;2023-04-20T00:31:51;99451.03;;;75.52;3.45
23643;BME280;11998;55.788;37.572;2023-04-20T00:32:51;99457.78;;;75.05;3.11
23643;BME280;11998;55.788;37.572;2023-04-20T00:33:52;99454.00;;;74.70;3.17
23643;BME280;11998;55.788;37.572;2023-04-20T00:34:52;99457.22;;;74.97;3.38
23643;BME280;11998;55.788;37.572;2023-04-20T00:35:53;99448.69;;;74.90;3.51
23643;BME280;11998;55.788;37.572;2023-04-20T00:36:55;99444.84;;;73.91;3.56
23643;BME280;11998;55.788;37.572;2023-04-20T00:37:56;99443.13;;;74.06;3.65
23643;BME280;11998;55.788;37.572;2023-04-20T00:38:57;99450.63;;;74.20;3.45
23643;BME280;11998;55.788;37.572;2023-04-20T00:40:01;99448.16;;;74.82;3.22
23643;BME280;11998;55.788;37.572;2023-04-20T00:41:03;99442.41;;;75.13;3.09
23643;BME280;11998;55.788;37.572;2023-04-20T00:42:05;99446.94;;;75.71;3.27
23643;BME280;11998;55.788;37.572;2023-04-20T00:43:10;99455.47;;;76.49;2.91
23643;BME280;11998;55.788;37.572;2023-04-20T00:44:11;99445.31;;;77.36;3.14
23643;BME280;11998;55.788;37.572;2023-04-20T00:45:13;99454.63;;;77.35;3.09
23643;BME280;11998;55.788;37.572;2023-04-20T00:46:13;99453.06;;;77.76;2.76
23643;BME280;11998;55.788;37.572;2023-04-20T00:47:14;99457.72;;;76.95;2.79
23643;BME280;11998;55.788;37.572;2023-04-20T00:48:15;99456.94;;;76.54;3.22
23643;BME280;11998;55.788;37.572;2023-04-20T00:49:16;99449.69;;;76.68;3.29
23643;BME280;11998;55.788;37.572;2023-04-20T00:50:18;99443.13;;;75.61;2.98
23643;BME280;11998;55.788;37.572;2023-04-20T00:51:20;99443.22;;;76.42;3.27
23643;BME280;11998;55.788;37.572;2023-04-20T00:52:21;99447.22;;;76.66;2.94
23643;BME280;11998;55.788;37.572;2023-04-20T00:53:21;99446.94;;;77.46;3.15
23643;BME280;11998;55.788;37.572;2023-04-20T00:54:22;99448.16;;;77.91;2.77
23643;BME280;11998;55.788;37.572;2023-04-20T00:55:23;99442.41;;;77.18;2.83
23643;BME280;11998;55.788;37.572;2023-04-20T00:56:24;99438.47;;;76.94;3.15
23643;BME280;11998;55.788;37.572;2023-04-20T00:57:25;99443.41;;;75.76;3.25
23643;BME280;11998;55.788;37.572;2023-04-20T00:58:27;99444.03;;;75.14;3.40
23643;BME280;11998;55.788;37.572;2023-04-20T00:59:27;99437.66;;;75.29;3.15
23643;BME280;11998;55.788;37.572;2023-04-20T01:00:28;99440.94;;;74.96;3.25
23643;BME280;11998;55.788;37.572;2023-04-20T01:01:29;99422.16;;;74.72;3.52
23643;BME280;11998;55.788;37.572;2023-04-20T01:02:31;99428.78;;;75.85;3.03
23643;BME280;11998;55.788;37.572;2023-04-20T01:03:32;99437.72;;;76.44;3.31
23643;BME280;11998;55.788;37.572;2023-04-20T01:04:33;99425.00;;;76.07;3.31
23643;BME280;11998;55.788;37.572;2023-04-20T01:05:35;99423.72;;;76.57;3.13
23643;BME280;11998;55.788;37.572;2023-04-20T01:06:36;99427.50;;;76.17;3.25
23643;BME280;11998;55.788;37.572;2023-04-20T01:07:36;99425.69;;;75.89;3.10
23643;BME280;11998;55.788;37.572;2023-04-20T01:08:47;99418.94;;;74.44;3.64
23643;BME280;11998;55.788;37.572;2023-04-20T01:09:48;99415.28;;;74.40;3.52
23643;BME280;11998;55.788;37.572;2023-04-20T01:10:48;99410.38;;;73.99;3.45
23643;BME280;11998;55.788;37.572;2023-04-20T01:11:49;99413.09;;;74.19;3.60
23643;BME280;11998;55.788;37.572;2023-04-20T01:12:49;99411.78;;;75.49;3.17
23643;BME280;11998;55.788;37.572;2023-04-20T01:13:50;99414.50;;;75.21;3.18
23643;BME280;11998;55.788;37.572;2023-04-20T01:14:51;99410.13;;;74.70;3.50
23643;BME280;11998;55.788;37.572;2023-04-20T01:15:51;99415.53;;;74.93;3.43
23643;BME280;11998;55.788;37.572;2023-04-20T01:16:52;99408.66;;;74.87;3.30
23643;BME280;11998;55.788;37.572;2023-04-20T01:17:52;99416.47;;;75.68;3.34
23643;BME280;11998;55.788;37.572;2023-04-20T01:18:53;99412.69;;;75.37;3.60
23643;BME280;11998;55.788;37.572;2023-04-20T01:19:53;99415.34;;;74.75;3.35
23643;BME280;11998;55.788;37.572;2023-04-20T01:20:54;99418.88;;;75.39;3.39
23643;BME280;11998;55.788;37.572;2023-04-20T01:21:55;99418.06;;;75.60;3.14
23643;BME280;11998;55.788;37.572;2023-04-20T01:22:55;99408.16;;;76.38;2.94
23643;BME280;11998;55.788;37.572;2023-04-20T01:23:56;99414.16;;;75.19;3.40
23643;BME280;11998;55.788;37.572;2023-04-20T01:24:57;99416.84;;;75.27;3.21
23643;BME280;11998;55.788;37.572;2023-04-20T01:25:58;99409.06;;;74.63;3.62
23643;BME280;11998;55.788;37.572;2023-04-20T01:26:59;99408.78;;;75.40;3.40
23643;BME280;11998;55.788;37.572;2023-04-20T01:28:00;99410.88;;;75.17;3.29
23643;BME280;11998;55.788;37.572;2023-04-20T01:29:01;99411.00;;;75.80;3.13
23643;BME280;11998;55.788;37.572;2023-04-20T01:30:02;99408.69;;;76.46;3.20
23643;BME280;11998;55.788;37.572;2023-04-20T01:31:04;99407.81;;;76.27;3.25
23643;BME280;11998;55.788;37.572;2023-04-20T01:32:05;99408.47;;;74.81;3.31
23643;BME280;11998;55.788;37.572;2023-04-20T01:33:06;99407.88;;;74.74;3.38
23643;BME280;11998;55.788;37.572;2023-04-20T01:34:06;99411.38;;;75.38;3.42
23643;BME280;11998;55.788;37.572;2023-04-20T01:35:07;99402.81;;;75.43;3.21
23643;BME280;11998;55.788;37.572;2023-04-20T01:36:11;99407.69;;;75.68;3.35
23643;BME280;11998;55.788;37.572;2023-04-20T01:37:12;99408.06;;;74.45;3.71
23643;BME280;11998;55.788;37.572;2023-04-20T01:38:19;99403.91;;;74.68;3.18
23643;BME280;11998;55.788;37.572;2023-04-20T01:39:20;99408.06;;;75.80;3.21
23643;BME280;11998;55.788;37.572;2023-04-20T01:40:21;99402.63;;;76.40;2.86
23643;BME280;11998;55.788;37.572;2023-04-20T01:41:22;99406.44;;;76.59;3.43
23643;BME280;11998;55.788;37.572;2023-04-20T01:42:23;99402.56;;;76.71;2.99
23643;BME280;11998;55.788;37.572;2023-04-20T01:43:24;99405.72;;;76.37;3.39
23643;BME280;11998;55.788;37.572;2023-04-20T01:44:24;99414.00;;;77.06;2.86
23643;BME280;11998;55.788;37.572;2023-04-20T01:45:25;99412.53;;;76.92;3.02
23643;BME280;11998;55.788;37.572;2023-04-20T01:46:25;99401.91;;;76.85;3.18
23643;BME280;11998;55.788;37.572;2023-04-20T01:47:29;99404.50;;;76.65;3.28
23643;BME280;11998;55.788;37.572;2023-04-20T01:48:30;99400.44;;;75.16;3.22
23643;BME280;11998;55.788;37.572;2023-04-20T01:49:31;99401.09;;;75.55;3.61
23643;BME280;11998;55.788;37.572;2023-04-20T01:50:31;99400.00;;;76.33;3.06
23643;BME280;11998;55.788;37.572;2023-04-20T01:51:33;99401.25;;;76.90;3.27
23643;BME280;11998;55.788;37.572;2023-04-20T01:52:34;99401.25;;;77.00;3.31
23643;BME280;11998;55.788;37.572;2023-04-20T01:53:34;99399.25;;;77.52;2.89
23643;BME280;11998;55.788;37.572;2023-04-20T01:54:35;99400.25;;;77.58;3.00
23643;BME280;11998;55.788;37.572;2023-04-20T01:55:36;99407.94;;;78.07;3.24
23643;BME280;11998;55.788;37.572;2023-04-20T01:56:37;99400.66;;;77.84;3.09
23643;BME280;11998;55.788;37.572;2023-04-20T01:57:37;99405.31;;;77.57;3.17
23643;BME280;11998;55.788;37.572;2023-04-20T01:58:38;99403.31;;;77.63;3.03
23643;BME280;11998;55.788;37.572;2023-04-20T01:59:38;99403.38;;;77.45;3.23
23643;BME280;11998;55.788;37.572;2023-04-20T02:00:39;99399.44;;;74.76;3.54
23643;BME280;11998;55.788;37.572;2023-04-20T02:01:39;99403.88;;;75.59;3.28
23643;BME280;11998;55.788;37.572;2023-04-20T02:02:40;99395.25;;;74.99;3.15
23643;BME280;11998;55.788;37.572;2023-04-20T02:03:43;99395.00;;;74.71;3.52
23643;BME280;11998;55.788;37.572;2023-04-20T02:04:44;99388.00;;;74.69;3.38
23643;BME280;11998;55.788;37.572;2023-04-20T02:05:45;99391.81;;;75.88;3.20
23643;BME280;11998;55.788;37.572;2023-04-20T02:06:45;99389.34;;;74.77;3.50
23643;BME280;11998;55.788;37.572;2023-04-20T02:07:46;99386.47;;;75.55;3.23
23643;BME280;11998;55.788;37.572;2023-04-20T02:08:46;99384.22;;;74.81;3.35
23643;BME280;11998;55.788;37.572;2023-04-20T02:09:47;99382.88;;;74.47;3.57
23643;BME280;11998;55.788;37.572;2023-04-20T02:10:48;99383.03;;;75.35;3.11
23643;BME280;11998;55.788;37.572;2023-04-20T02:11:48;99382.06;;;74.94;3.55
23643;BME280;11998;55.788;37.572;2023-04-20T02:12:49;99390.53;;;75.36;3.56
23643;BME280;11998;55.788;37.572;2023-04-20T02:13:50;99386.84;;;75.44;3.48
23643;BME280;11998;55.788;37.572;2023-04-20T02:14:50;99393.59;;;75.10;3.54
23643;BME280;11998;55.788;37.572;2023-04-20T02:15:51;99386.47;;;74.64;3.71
23643;BME280;11998;55.788;37.572;2023-04-20T02:16:52;99386.69;;;74.70;3.43
23643;BME280;11998;55.788;37.572;2023-04-20T02:17:52;99383.13;;;74.40;3.65
23643;BME280;11998;55.788;37.572;2023-04-20T02:18:54;99377.06;;;74.22;3.48
23643;BME280;11998;55.788;37.572;2023-04-20T02:19:54;99370.63;;;73.89;3.53
23643;BME280;11998;55.788;37.572;2023-04-20T02:20:55;99380.72;;;73.46;3.87
23643;BME280;11998;55.788;37.572;2023-04-20T02:21:55;99387.78;;;73.74;3.62
23643;BME280;11998;55.788;37.572;2023-04-20T02:22:56;99374.91;;;72.72;3.93
23643;BME280;11998;55.788;37.572;2023-04-20T02:23:56;99377.72;;;72.59;3.79
23643;BME280;11998;55.788;37.572;2023-04-20T02:24:57;99381.38;;;73.37;3.94
23643;BME280;11998;55.788;37.572;2023-04-20T02:25:58;99387.66;;;73.65;3.60
23643;BME280;11998;55.788;37.572;2023-04-20T02:26:58;99371.31;;;73.38;3.82
23643;BME280;11998;55.788;37.572;2023-04-20T02:27:59;99365.31;;;73.45;3.88
23643;BME280;11998;55.788;37.572;2023-04-20T02:29:00;99381.13;;;73.86;3.86
23643;BME280;11998;55.788;37.572;2023-04-20T02:30:00;99370.72;;;73.85;3.78
23643;BME280;11998;55.788;37.572;2023-04-20T02:31:01;99377.16;;;74.05;3.59
23643;BME280;11998;55.788;37.572;2023-04-20T02:32:02;99380.53;;;74.04;3.86
23643;BME280;11998;55.788;37.572;2023-04-20T02:33:02;99376.03;;;73.48;3.64
23643;BME280;11998;55.788;37.572;2023-04-20T02:34:03;99377.50;;;73.82;3.89
23643;BME280;11998;55.788;37.572;2023-04-20T02:35:05;99374.63;;;73.40;3.67
23643;BME280;11998;55.788;37.572;2023-04-20T02:36:06;99378.84;;;73.52;3.96
23643;BME280;11998;55.788;37.572;2023-04-20T02:37:07;99376.09;;;73.74;3.75
23643;BME280;11998;55.788;37.572;2023-04-20T02:38:07;99372.53;;;73.53;3.99
23643;BME280;11998;55.788;37.572;2023-04-20T02:39:08;99372.78;;;72.56;3.68
23643;BME280;11998;55.788;37.572;2023-04-20T02:40:09;99371.59;;;72.70;3.71
23643;BME280;11998;55.788;37.572;2023-04-20T02:41:10;99373.06;;;73.90;3.72
23643;BME280;11998;55.788;37.572;2023-04-20T02:42:10;99380.44;;;73.82;3.67
23643;BME280;11998;55.788;37.572;2023-04-20T02:43:11;99376.53;;;73.18;3.68
23643;BME280;11998;55.788;37.572;2023-04-20T02:44:11;99383.91;;;72.45;4.01
23643;BME280;11998;55.788;37.572;2023-04-20T02:45:12;99377.84;;;73.01;3.84
23643;BME280;11998;55.788;37.572;2023-04-20T02:46:13;99371.97;;;73.46;3.47
23643;BME280;11998;55.788;37.572;2023-04-20T02:47:14;99378.38;;;73.53;3.64
23643;BME280;11998;55.788;37.572;2023-04-20T02:48:14;99371.06;;;73.20;3.88
23643;BME280;11998;55.788;37.572;2023-04-20T02:49:15;99372.59;;;72.30;4.08
23643;BME280;11998;55.788;37.572;2023-04-20T02:50:16;99367.25;;;71.93;4.13
23643;BME280;11998;55.788;37.572;2023-04-20T02:51:16;99373.00;;;71.40;4.03
23643;BME280;11998;55.788;37.572;2023-04-20T02:52:17;99361.59;;;70.39;4.31
23643;BME280;11998;55.788;37.572;2023-04-20T02:53:17;99369.53;;;72.21;3.92
23643;BME280;11998;55.788;37.572;2023-04-20T02:54:18;99366.44;;;71.36;4.16
23643;BME280;11998;55.788;37.572;2023-04-20T02:55:19;99355.59;;;70.97;4.19
23643;BME280;11998;55.788;37.572;2023-04-20T02:56:20;99363.09;;;69.97;4.59
23643;BME280;11998;55.788;37.572;2023-04-20T02:57:21;99362.56;;;70.56;4.23
23643;BME280;11998;55.788;37.572;2023-04-20T02:58:21;99360.41;;;70.60;4.38
23643;BME280;11998;55.788;37.572;2023-04-20T02:59:22;99360.22;;;71.14;4.28
23643;BME280;11998;55.788;37.572;2023-04-20T03:00:22;99361.81;;;70.76;4.37
23643;BME280;11998;55.788;37.572;2023-04-20T03:01:23;99363.88;;;70.98;4.27
23643;BME280;11998;55.788;37.572;2023-04-20T03:02:23;99359.88;;;70.89;4.00
23643;BME280;11998;55.788;37.572;2023-04-20T03:03:24;99365.31;;;71.30;4.29
23643;BME280;11998;55.788;37.572;2023-04-20T03:04:25;99373.16;;;71.33;3.94
23643;BME280;11998;55.788;37.572;2023-04-20T03:05:26;99370.25;;;72.25;3.92
23643;BME280;11998;55.788;37.572;2023-04-20T03:06:27;99372.06;;;72.52;4.11
23643;BME280;11998;55.788;37.572;2023-04-20T03:07:28;99371.91;;;71.90;4.14
23643;BME280;11998;55.788;37.572;2023-04-20T03:08:28;99370.38;;;72.18;3.90
23643;BME280;11998;55.788;37.572;2023-04-20T03:09:29;99372.38;;;73.03;3.62
23643;BME280;11998;55.788;37.572;2023-04-20T03:10:29;99375.03;;;72.81;3.90
23643;BME280;11998;55.788;37.572;2023-04-20T03:11:30;99374.13;;;73.00;3.66
23643;BME280;11998;55.788;37.572;2023-04-20T03:12:31;99365.84;;;72.17;4.17
23643;BME280;11998;55.788;37.572;2023-04-20T03:13:31;99368.97;;;72.75;4.11
23643;BME280;11998;55.788;37.572;2023-04-20T03:14:32;99367.94;;;72.00;4.07
23643;BME280;11998;55.788;37.572;2023-04-20T03:15:32;99365.59;;;71.75;3.84
23643;BME280;11998;55.788;37.572;2023-04-20T03:16:33;99366.69;;;72.34;4.01
23643;BME280;11998;55.788;37.572;2023-04-20T03:17:34;99359.75;;;72.28;4.02
23643;BME280;11998;55.788;37.572;2023-04-20T03:18:35;99358.78;;;72.51;3.97
23643;BME280;11998;55.788;37.572;2023-04-20T03:19:36;99353.66;;;72.38;4.07
23643;BME280;11998;55.788;37.572;2023-04-20T03:20:36;99361.75;;;72.31;3.89
23643;BME280;11998;55.788;37.572;2023-04-20T03:21:37;99366.28;;;72.16;3.86
23643;BME280;11998;55.788;37.572;2023-04-20T03:22:37;99359.41;;;72.58;4.07
23643;BME280;11998;55.788;37.572;2023-04-20T03:23:38;99357.59;;;71.79;4.13
23643;BME280;11998;55.788;37.572;2023-04-20T03:24:39;99356.91;;;72.57;3.86
23643;BME280;11998;55.788;37.572;2023-04-20T03:25:40;99362.19;;;72.13;4.16
23643;BME280;11998;55.788;37.572;2023-04-20T03:26:41;99360.94;;;72.63;4.14
23643;BME280;11998;55.788;37.572;2023-04-20T03:27:44;99363.56;;;73.19;3.96
23643;BME280;11998;55.788;37.572;2023-04-20T03:28:45;99361.38;;;73.90;3.80
23643;BME280;11998;55.788;37.572;2023-04-20T03:29:45;99358.13;;;73.05;3.89
23643;BME280;11998;55.788;37.572;2023-04-20T03:30:48;99359.72;;;73.76;3.86
23643;BME280;11998;55.788;37.572;2023-04-20T03:31:48;99351.22;;;72.99;3.91
23643;BME280;11998;55.788;37.572;2023-04-20T03:32:49;99352.50;;;72.98;3.96
23643;BME280;11998;55.788;37.572;2023-04-20T03:33:49;99352.91;;;72.18;4.08
23643;BME280;11998;55.788;37.572;2023-04-20T03:34:50;99350.75;;;73.29;3.96
23643;BME280;11998;55.788;37.572;2023-04-20T03:35:51;99349.00;;;73.03;3.75
23643;BME280;11998;55.788;37.572;2023-04-20T03:36:51;99359.25;;;74.29;3.38
23643;BME280;11998;55.788;37.572;2023-04-20T03:37:52;99356.94;;;73.98;3.53
23643;BME280;11998;55.788;37.572;2023-04-20T03:38:53;99344.91;;;73.29;4.03
23643;BME280;11998;55.788;37.572;2023-04-20T03:39:53;99359.34;;;74.51;3.42
23643;BME280;11998;55.788;37.572;2023-04-20T03:40:54;99360.16;;;74.51;3.64
23643;BME280;11998;55.788;37.572;2023-04-20T03:41:54;99362.59;;;74.65;3.51
23643;BME280;11998;55.788;37.572;2023-04-20T03:42:56;99368.19;;;75.07;3.71
23643;BME280;11998;55.788;37.572;2023-04-20T03:43:57;99364.75;;;75.74;3.53
23643;BME280;11998;55.788;37.572;2023-04-20T03:44:57;99359.06;;;76.29;3.27
23643;BME280;11998;55.788;37.572;2023-04-20T03:45:58;99365.38;;;77.32;3.15
23643;BME280;11998;55.788;37.572;2023-04-20T03:46:59;99367.00;;;78.18;3.18
23643;BME280;11998;55.788;37.572;2023-04-20T03:47:59;99373.47;;;79.32;3.01
23643;BME280;11998;55.788;37.572;2023-04-20T03:49:00;99380.72;;;79.96;2.70
23643;BME280;11998;55.788;37.572;2023-04-20T03:50:01;99378.69;;;80.02;2.57
23643;BME280;11998;55.788;37.572;2023-04-20T03:51:01;99380.19;;;81.14;2.83
23643;BME280;11998;55.788;37.572;2023-04-20T03:52:02;99380.13;;;81.66;2.40
23643;BME280;11998;55.788;37.572;2023-04-20T03:53:03;99386.88;;;82.04;2.64
23643;BME280;11998;55.788;37.572;2023-04-20T03:54:03;99389.97;;;82.80;2.62
23643;BME280;11998;55.788;37.572;2023-04-20T03:55:06;99390.34;;;83.16;2.31
23643;BME280;11998;55.788;37.572;2023-04-20T03:56:07;99391.69;;;83.15;2.21
23643;BME280;11998;55.788;37.572;2023-04-20T03:57:07;99385.78;;;82.49;2.47
23643;BME280;11998;55.788;37.572;2023-04-20T03:58:08;99399.53;;;83.29;2.45
23643;BME280;11998;55.788;37.572;2023-04-20T03:59:08;99391.94;;;83.00;2.25
23643;BME280;11998;55.788;37.572;2023-04-20T04:00:09;99394.09;;;83.11;2.60
23643;BME280;11998;55.788;37.572;2023-04-20T04:01:11;99399.22;;;83.16;2.20
23643;BME280;11998;55.788;37.572;2023-04-20T04:02:12;99394.16;;;83.55;2.36
23643;BME280;11998;55.788;37.572;2023-04-20T04:03:13;99391.53;;;82.70;2.51
23643;BME280;11998;55.788;37.572;2023-04-20T04:04:14;99404.13;;;83.52;2.43
23643;BME280;11998;55.788;37.572;2023-04-20T04:05:14;99404.03;;;84.31;2.05
23643;BME280;11998;55.788;37.572;2023-04-20T04:06:15;99403.94;;;84.53;2.33
23643;BME280;11998;55.788;37.572;2023-04-20T04:07:15;99402.09;;;84.50;2.40
23643;BME280;11998;55.788;37.572;2023-04-20T04:08:16;99393.06;;;84.03;2.46
23643;BME280;11998;55.788;37.572;2023-04-20T04:09:16;99397.63;;;83.93;2.34
23643;BME280;11998;55.788;37.572;2023-04-20T04:10:17;99391.75;;;82.55;2.41
23643;BME280;11998;55.788;37.572;2023-04-20T04:11:21;99385.47;;;82.36;2.57
23643;BME280;11998;55.788;37.572;2023-04-20T04:12:21;99384.84;;;82.86;2.61
23643;BME280;11998;55.788;37.572;2023-04-20T04:13:22;99384.44;;;82.45;2.38
23643;BME280;11998;55.788;37.572;2023-04-20T04:14:22;99378.38;;;82.17;2.36
23643;BME280;11998;55.788;37.572;2023-04-20T04:15:23;99384.81;;;81.78;2.45
23643;BME280;11998;55.788;37.572;2023-04-20T04:16:24;99376.53;;;80.78;2.92
23643;BME280;11998;55.788;37.572;2023-04-20T04:17:24;99379.56;;;80.84;2.63
23643;BME280;11998;55.788;37.572;2023-04-20T04:18:25;99378.59;;;80.72;2.85
23643;BME280;11998;55.788;37.572;2023-04-20T04:19:28;99362.13;;;78.63;3.04
23643;BME280;11998;55.788;37.572;2023-04-20T04:20:29;99371.00;;;79.75;2.76
23643;BME280;11998;55.788;37.572;2023-04-20T04:21:30;99381.56;;;80.72;3.03
23643;BME280;11998;55.788;37.572;2023-04-20T04:22:30;99360.00;;;77.73;3.00
23643;BME280;11998;55.788;37.572;2023-04-20T04:23:31;99365.56;;;79.53;3.12
23643;BME280;11998;55.788;37.572;2023-04-20T04:24:31;99375.13;;;79.98;2.59
23643;BME280;11998;55.788;37.572;2023-04-20T04:25:32;99366.31;;;79.83;2.71
23643;BME280;11998;55.788;37.572;2023-04-20T04:26:34;99373.53;;;81.25;2.86
23643;BME280;11998;55.788;37.572;2023-04-20T04:27:34;99373.63;;;81.62;2.94
23643;BME280;11998;55.788;37.572;2023-04-20T04:28:36;99369.94;;;81.67;2.78
23643;BME280;11998;55.788;37.572;2023-04-20T04:29:37;99378.31;;;81.74;2.81
23643;BME280;11998;55.788;37.572;2023-04-20T04:30:38;99380.31;;;81.88;2.70
23643;BME280;11998;55.788;37.572;2023-04-20T04:31:38;99374.78;;;81.13;2.57
23643;BME280;11998;55.788;37.572;2023-04-20T04:32:40;99369.06;;;81.29;2.61
23643;BME280;11998;55.788;37.572;2023-04-20T04:33:40;99374.34;;;80.99;2.57
23643;BME280;11998;55.788;37.572;2023-04-20T04:34:41;99380.25;;;81.83;2.45
23643;BME280;11998;55.788;37.572;2023-04-20T04:35:45;99376.53;;;82.79;2.86
23643;BME280;11998;55.788;37.572;2023-04-20T04:36:45;99382.56;;;84.60;2.41
23643;BME280;11998;55.788;37.572;2023-04-20T04:37:46;99367.31;;;82.12;2.44
23643;BME280;11998;55.788;37.572;2023-04-20T04:38:47;99375.50;;;83.16;2.28
23643;BME280;11998;55.788;37.572;2023-04-20T04:39:49;99379.06;;;84.67;2.27
23643;BME280;11998;55.788;37.572;2023-04-20T04:40:50;99389.00;;;86.07;2.22
23643;BME280;11998;55.788;37.572;2023-04-20T04:41:51;99386.28;;;86.71;1.92
23643;BME280;11998;55.788;37.572;2023-04-20T04:42:52;99360.78;;;81.65;2.57
23643;BME280;11998;55.788;37.572;2023-04-20T04:43:53;99384.59;;;85.65;2.09
23643;BME280;11998;55.788;37.572;2023-04-20T04:44:54;99379.38;;;85.05;2.11
23643;BME280;11998;55.788;37.572;2023-04-20T04:45:55;99378.94;;;86.10;2.08
23643;BME280;11998;55.788;37.572;2023-04-20T04:46:57;99371.66;;;86.73;2.16
23643;BME280;11998;55.788;37.572;2023-04-20T04:47:58;99364.25;;;83.65;2.50
23643;BME280;11998;55.788;37.572;2023-04-20T04:48:59;99342.44;;;79.07;3.00
23643;BME280;11998;55.788;37.572;2023-04-20T04:50:03;99356.13;;;82.33;2.76
23643;BME280;11998;55.788;37.572;2023-04-20T04:51:05;99366.81;;;84.18;2.52
23643;BME280;11998;55.788;37.572;2023-04-20T04:52:07;99352.59;;;83.11;2.48
23643;BME280;11998;55.788;37.572;2023-04-20T04:53:08;99373.75;;;85.92;2.15
23643;BME280;11998;55.788;37.572;2023-04-20T04:54:08;99365.94;;;85.64;2.05
23643;BME280;11998;55.788;37.572;2023-04-20T04:55:09;99383.72;;;87.64;1.98
23643;BME280;11998;55.788;37.572;2023-04-20T04:56:13;99370.56;;;87.40;1.99
23643;BME280;11998;55.788;37.572;2023-04-20T04:57:13;99371.13;;;87.25;2.08
23643;BME280;11998;55.788;37.572;2023-04-20T04:58:14;99377.59;;;89.09;1.78
23643;BME280;11998;55.788;37.572;2023-04-20T04:59:15;99379.66;;;89.85;1.50
23643;BME280;11998;55.788;37.572;2023-04-20T05:00:17;99367.34;;;89.96;2.05
23643;BME280;11998;55.788;37.572;2023-04-20T05:01:18;99365.19;;;88.84;1.82
23643;BME280;11998;55.788;37.572;2023-04-20T05:02:19;99352.75;;;88.46;1.90
23643;BME280;11998;55.788;37.572;2023-04-20T05:03:19;99354.34;;;88.21;2.00
23643;BME280;11998;55.788;37.572;2023-04-20T05:04:20;99356.69;;;87.88;1.92
23643;BME280;11998;55.788;37.572;2023-04-20T05:05:22;99343.34;;;87.49;1.79
23643;BME280;11998;55.788;37.572;2023-04-20T05:06:24;99339.03;;;84.80;2.29
23643;BME280;11998;55.788;37.572;2023-04-20T05:07:28;99338.72;;;85.24;1.97
23643;BME280;11998;55.788;37.572;2023-04-20T05:08:29;99338.09;;;85.62;2.01
23643;BME280;11998;55.788;37.572;2023-04-20T05:09:29;99348.00;;;87.58;2.06
23643;BME280;11998;55.788;37.572;2023-04-20T05:10:32;99352.69;;;89.56;1.61
23643;BME280;11998;55.788;37.572;2023-04-20T05:11:33;99357.06;;;90.12;1.66
23643;BME280;11998;55.788;37.572;2023-04-20T05:12:33;99351.00;;;91.00;1.73
23643;BME280;11998;55.788;37.572;2023-04-20T05:13:34;99346.59;;;91.31;1.47
23643;BME280;11998;55.788;37.572;2023-04-20T05:14:35;99330.59;;;88.76;1.71
23643;BME280;11998;55.788;37.572;2023-04-20T05:15:35;99355.44;;;91.37;1.44
23643;BME280;11998;55.788;37.572;2023-04-20T05:16:36;99361.81;;;92.75;1.57
23643;BME280;11998;55.788;37.572;2023-04-20T05:17:37;99350.25;;;92.64;1.42
23643;BME280;11998;55.788;37.572;2023-04-20T05:18:37;99337.63;;;91.01;1.48
23643;BME280;11998;55.788;37.572;2023-04-20T05:19:38;99333.41;;;91.50;1.50
23643;BME280;11998;55.788;37.572;2023-04-20T05:20:38;99335.09;;;89.73;1.64
23643;BME280;11998;55.788;37.572;2023-04-20T05:21:39;99341.38;;;90.94;1.60
23643;BME280;11998;55.788;37.572;2023-04-20T05:22:40;99339.44;;;91.27;1.51